Latest Coastal Weather Observations for Strahan

IDT60701

Issued at 5:22 am EDT Tuesday 7 February 2023 (issued every 10 minutes, with the page automatically refreshed every 10 minutes)

About coastal observations | Map of coastal stations | Coastal observations for TAS | Marine services | Other Formats
Station Details ID: 097072 Name: STRAHAN AERODROME Lat: -42.16 Lon: 145.29 Height: 21.0 m
Data from the previous 72 hours. | See also: Recent months at Strahan
Date/Time
EDT
Wind Sea
Height
m
Swell Vis
km
Cloud Weather Temp
°C
Press
MSL
hPa
Rain since
9am
mm
Dir  Spd
kts
Gust
kts
Height
m
Period
s
Dir
07/05:00am N 4 5 - - - - 10 Partly cloudy - 12.1 1017.8 1.6
07/04:30am ENE 4 5 - - - - 10 Partly cloudy - 12.2 1017.7 1.6
07/04:00am S 4 6 - - - - 10 Partly cloudy - 12.4 1017.9 1.4
07/03:59am S 5 6 - - - - 10 Partly cloudy - 12.4 1018.0 1.4
07/03:52am S 5 9 - - - - 10 Partly cloudy - 12.4 1018.0 1.4
07/03:45am SSW 8 13 - - - - 8 Partly cloudy - 12.5 1018.0 1.4
07/03:34am WSW 8 12 - - - - 5 Partly cloudy - 12.4 1018.0 1.4
07/03:30am WSW 6 12 - - - - 10 Partly cloudy - 12.5 1018.1 1.4
07/03:00am WSW 4 6 - - - - 10 Cloudy Rain 12.3 1018.1 1.4
07/02:59am WSW 4 6 - - - - 10 Partly cloudy - 12.3 1018.1 1.4
07/02:58am WSW 4 6 - - - - 10 Partly cloudy - 12.3 1018.1 1.4
07/02:35am W 4 11 - - - - 5 Partly cloudy - 12.6 1018.2 1.0
07/02:30am W 3 4 - - - - 10 Partly cloudy - 12.7 1018.2 0.8
07/02:28am WSW 3 4 - - - - 10 Partly cloudy - 12.7 1018.1 0.8
07/02:15am WSW 5 7 - - - - 5 Partly cloudy - 12.8 1018.1 0.8
07/02:12am WSW 5 7 - - - - 5 Partly cloudy - 12.8 1018.1 0.8
07/02:00am SSW 6 9 - - - - 10 Partly cloudy - 12.7 1018.2 0.6
07/01:30am SW 5 7 - - - - 10 Cloudy - 13.0 1018.1 0.6
07/01:00am SW 8 13 - - - - 10 Cloudy - 13.3 1018.2 0.6
07/12:30am SW 5 9 - - - - 10 Partly cloudy - 13.5 1018.3 0.4
07/12:00am WNW 6 8 - - - - 10 Cloudy - 14.1 1018.3 0.4
 
Date/Time
EDT
Wind Sea
Height
m
Swell Vis
km
Cloud Weather Temp
°C
Press
MSL
hPa
Rain since
9am
mm
Dir  Spd
kts
Gust
kts
Height
m
Period
s
Dir
06/11:30pm SW 7 10 - - - - 10 Partly cloudy - 14.0 1018.5 0.4
06/11:00pm WSW 6 9 - - - - 10 Partly cloudy - 14.1 1018.5 0.4
06/10:30pm WSW 8 11 - - - - 10 Cloudy - 14.2 1018.5 0.4
06/10:00pm WSW 8 9 - - - - 10 Partly cloudy - 14.0 1018.3 0.4
06/09:30pm WSW 8 11 - - - - 10 Partly cloudy - 14.1 1018.0 0.4
06/09:00pm WSW 9 13 - - - - 10 Cloudy Recent precip. 14.4 1017.8 0.4
06/08:30pm W 8 11 - - - - 10 Partly cloudy - 14.7 1017.7 0.4
06/08:00pm WSW 8 11 - - - - 10 Partly cloudy - 14.9 1017.6 0.4
06/07:30pm WSW 13 17 - - - - 10 Partly cloudy - 15.6 1017.6 0.4
06/07:00pm WSW 13 19 - - - - 10 Partly cloudy - 15.9 1017.5 0.4
06/06:30pm W 10 13 - - - - 10 Partly cloudy - 16.2 1017.4 0.4
06/06:00pm WSW 11 15 - - - - 10 Mostly cloudy - 16.6 1017.4 0.4
06/05:30pm WSW 13 17 - - - - 10 Partly cloudy - 17.7 1017.4 0.4
06/05:00pm SW 11 16 - - - - 10 Partly cloudy - 16.7 1017.4 0.4
06/04:30pm W 11 15 - - - - 10 Partly cloudy - 17.5 1017.5 0.4
06/04:00pm W 12 15 - - - - 10 Partly cloudy - 18.0 1017.7 0.4
06/03:30pm W 13 17 - - - - 10 Partly cloudy - 18.1 1017.8 0.4
06/03:00pm W 13 17 - - - - 10 Mostly cloudy Recent precip. 18.0 1017.8 0.4
06/02:30pm W 11 15 - - - - 10 Partly cloudy - 16.3 1018.0 0.4
06/02:09pm WSW 11 16 - - - - 10 Partly cloudy - 16.4 1018.0 0.4
06/02:00pm W 8 11 - - - - 7 Partly cloudy - 16.2 1018.0 0.4
06/01:37pm WSW 16 21 - - - - 5 Partly cloudy - 16.2 1017.9 0.2
06/01:30pm W 14 21 - - - - 10 Partly cloudy - 16.8 1017.8 0.2
06/01:00pm W 14 17 - - - - 10 Partly cloudy - 18.5 1017.6 0.0
06/12:30pm WNW 10 17 - - - - 10 Partly cloudy - 16.3 1017.9 0.0
06/12:00pm W 13 17 - - - - 10 Cloudy - 18.1 1017.9 0.0
06/11:30am W 11 15 - - - - 10 Partly cloudy - 17.8 1017.8 0.0
06/11:00am W 12 17 - - - - 10 Partly cloudy - 17.7 1017.7 0.0
06/10:30am WNW 13 17 - - - - 10 Partly cloudy - 16.9 1017.5 0.0
06/10:00am W 11 15 - - - - 10 Partly cloudy - 15.7 1017.3 0.0
06/09:30am W 11 15 - - - - 10 Partly cloudy - 15.0 1017.2 0.0
06/09:00am W 13 19 - - - - 7 Cloudy Showers 14.1 1017.0 1.4
06/08:45am WNW 11 16 - - - - 10 Partly cloudy - 14.4 1016.9 1.4
06/08:34am WNW 11 15 - - - - 8 Partly cloudy - 14.5 1016.8 1.4
06/08:30am W 10 15 - - - - 10 Partly cloudy - 14.3 1016.8 1.4
06/08:28am W 9 15 - - - - 10 Partly cloudy - 14.3 1016.8 1.4
06/08:27am W 8 15 - - - - 10 Partly cloudy - 14.4 1016.8 1.4
06/08:10am WSW 10 14 - - - - 5 Partly cloudy - 13.9 1016.7 1.2
06/08:00am WSW 8 11 - - - - 10 Partly cloudy - 14.1 1016.6 1.2
06/07:40am WNW 5 7 - - - - 10 Partly cloudy - 14.2 1016.6 1.0
06/07:30am W 8 11 - - - - 5 Partly cloudy - 13.9 1016.6 1.0
06/07:24am W 10 14 - - - - 5 Partly cloudy - 13.9 1016.6 1.0
06/07:19am W 10 13 - - - - 10 Partly cloudy - 14.0 1016.6 1.0
06/07:01am WNW 5 7 - - - - 10 Partly cloudy - 13.9 1016.3 1.0
06/07:00am WNW 5 7 - - - - 10 Partly cloudy - 13.8 1016.3 1.0
06/06:44am WNW 6 8 - - - - 5 Partly cloudy - 13.7 1016.2 0.6
06/06:30am NW 9 13 - - - - 8 Partly cloudy - 13.5 1016.1 0.6
06/06:29am WNW 9 13 - - - - 7 Partly cloudy - 13.5 1016.1 0.6
06/06:18am WNW 5 11 - - - - 10 Partly cloudy - 13.5 1016.0 0.4
06/06:00am NW 4 6 - - - - 10 Mostly cloudy Showers 13.5 1015.8 0.4
06/05:44am WNW 6 10 - - - - 10 Partly cloudy - 13.6 1015.8 0.4
06/05:30am NW 6 8 - - - - 10 Partly cloudy - 13.6 1015.7 0.2
06/05:28am NW 5 8 - - - - 10 Partly cloudy - 13.6 1015.7 0.2
06/05:18am NNW 6 7 - - - - 5 Partly cloudy - 13.5 1015.7 0.2
06/05:14am NNW 6 7 - - - - 7 Partly cloudy - 13.6 1015.6 0.2
06/05:00am NNW 5 7 - - - - 10 Partly cloudy - 13.6 1015.4 0.2
06/04:48am NW 7 9 - - - - 10 Partly cloudy - 13.5 1015.5 0.2
06/04:32am WNW 7 9 - - - - 5 Partly cloudy - 13.6 1015.7 0.2
06/04:30am WNW 6 9 - - - - 7 Partly cloudy - 13.6 1015.7 0.2
06/04:12am WNW 8 12 - - - - 6 Partly cloudy - 13.6 1015.7 0.2
06/04:00am WNW 7 11 - - - - 5 Partly cloudy - 13.5 1015.7 0.2
06/03:54am WNW 10 14 - - - - 5 Partly cloudy - 13.7 1015.7 0.0
06/03:30am NW 5 6 - - - - 10 Partly cloudy - 13.9 1015.5 0.0
06/03:00am NW 6 7 - - - - 10 Mostly cloudy - 13.8 1015.7 0.0
06/02:30am WNW 9 12 - - - - 10 Partly cloudy - 14.3 1015.9 0.0
06/02:00am WNW 5 7 - - - - 10 Cloudy - 14.3 1015.9 0.0
06/01:30am WNW 6 9 - - - - 10 Cloudy - 14.5 1016.1 0.0
06/01:00am WNW 7 10 - - - - 10 Cloudy - 14.7 1016.1 0.0
06/12:30am W 7 12 - - - - 10 Cloudy - 14.7 1016.1 0.0
06/12:00am WNW 6 8 - - - - 10 Cloudy - 14.7 1016.2 0.0
 
Date/Time
EDT
Wind Sea
Height
m
Swell Vis
km
Cloud Weather Temp
°C
Press
MSL
hPa
Rain since
9am
mm
Dir  Spd
kts
Gust
kts
Height
m
Period
s
Dir
05/11:30pm WNW 4 6 - - - - 10 Partly cloudy - 14.4 1016.1 0.0
05/11:00pm W 8 11 - - - - 10 Cloudy - 14.6 1016.1 0.0
05/10:30pm W 9 12 - - - - 10 Partly cloudy - 14.6 1016.4 0.0
05/10:00pm WNW 5 7 - - - - 10 Partly cloudy - 15.0 1016.4 0.0
05/09:30pm NNW 4 5 - - - - 10 Cloudy - 14.7 1016.3 0.0
05/09:00pm NNW 5 6 - - - - 10 Cloudy - 14.8 1016.1 0.0
05/08:30pm NW 6 8 - - - - 10 Cloudy - 15.1 1016.0 0.0
05/08:00pm WNW 6 8 - - - - 10 Cloudy - 15.2 1015.8 0.0
05/07:30pm W 7 8 - - - - 10 Cloudy - 15.6 1015.6 0.0
05/07:00pm WNW 7 11 - - - - 10 Cloudy - 15.9 1015.5 0.0
05/06:30pm WNW 7 9 - - - - 10 Cloudy - 15.9 1015.3 0.0
05/06:00pm WNW 7 11 - - - - 10 Cloudy - 15.8 1015.4 0.0
05/05:30pm WNW 7 10 - - - - 10 Partly cloudy - 15.6 1015.7 0.0
05/05:00pm W 8 11 - - - - 10 Cloudy - 15.5 1015.5 0.0
05/04:30pm W 8 12 - - - - 10 Partly cloudy - 16.4 1015.5 0.0
05/04:00pm WNW 8 10 - - - - 10 Partly cloudy - 16.3 1015.6 0.0
05/03:30pm WNW 8 11 - - - - 10 Partly cloudy - 16.4 1015.6 0.0
05/03:00pm W 8 11 - - - - 10 Mostly cloudy - 16.7 1015.8 0.0
05/02:30pm W 8 11 - - - - 10 Cloudy - 16.9 1015.6 0.0
05/02:00pm WNW 6 9 - - - - 10 Cloudy - 17.0 1015.5 0.0
05/01:30pm WNW 8 12 - - - - 10 Cloudy - 17.1 1015.5 0.0
05/01:00pm WSW 10 13 - - - - 10 Partly cloudy - 17.0 1015.5 0.0
05/12:30pm W 12 16 - - - - 10 Partly cloudy - 18.3 1015.2 0.0
05/12:00pm W 9 13 - - - - 10 Mostly cloudy - 18.5 1015.1 0.0
05/11:30am WSW 10 14 - - - - 10 - - 17.5 1015.1 0.0
05/11:00am W 8 11 - - - - 10 Partly cloudy - 17.5 1015.0 0.0
05/10:30am WSW 10 14 - - - - 10 Partly cloudy - 16.7 1014.7 0.0
05/10:00am WSW 9 12 - - - - 10 Cloudy - 16.1 1014.5 0.0
05/09:30am SSW 7 11 - - - - 10 Partly cloudy - 15.5 1014.2 0.0
05/09:00am NE 1 4 - - - - 10 Cloudy - 14.5 1013.9 1.8
05/08:30am SSE 2 4 - - - - 10 Cloudy - 14.1 1013.4 1.8
05/08:00am S 5 7 - - - - 10 Cloudy - 13.4 1013.0 1.8
05/07:30am CALM 0 0 - - - - 10 Partly cloudy - 13.0 1012.6 1.8
05/07:00am CALM 0 3 - - - - 10 Partly cloudy - 12.6 1012.2 1.8
05/06:30am E 2 4 - - - - 10 Partly cloudy - 12.7 1011.8 1.8
05/06:00am ESE 5 6 - - - - 10 Cloudy - 13.0 1011.4 1.8
05/05:30am S 7 11 - - - - 10 Partly cloudy - 13.1 1011.0 1.8
05/05:00am SSW 7 10 - - - - 10 Cloudy - 12.7 1010.7 1.8
05/04:30am SSW 6 8 - - - - 10 Partly cloudy - 12.9 1010.4 1.8
05/04:00am SSE 7 10 - - - - 10 Partly cloudy - 12.9 1010.4 1.8
05/03:30am S 6 7 - - - - 10 Partly cloudy - 12.7 1010.5 1.8
05/03:00am SSW 6 11 - - - - 10 Cloudy - 12.7 1010.2 1.8
05/02:30am SSW 7 11 - - - - 10 Partly cloudy - 12.6 1010.2 1.8
05/02:00am SW 7 9 - - - - 10 Partly cloudy - 12.9 1010.1 1.8
05/01:30am SSW 7 10 - - - - 10 Partly cloudy - 12.6 1009.8 1.8
05/01:00am SSW 7 9 - - - - 10 Partly cloudy - 12.2 1009.6 1.8
05/12:30am SSW 8 11 - - - - 10 Partly cloudy - 12.0 1009.4 1.8
05/12:00am SSW 8 11 - - - - 10 Partly cloudy - 12.4 1009.4 1.8
 
Date/Time
EDT
Wind Sea
Height
m
Swell Vis
km
Cloud Weather Temp
°C
Press
MSL
hPa
Rain since
9am
mm
Dir  Spd
kts
Gust
kts
Height
m
Period
s
Dir
04/11:30pm SW 9 12 - - - - 10 Partly cloudy - 12.8 1009.4 1.8
04/11:00pm SSW 7 11 - - - - 10 Partly cloudy - 13.2 1009.3 1.8
04/10:30pm SSW 7 10 - - - - 10 Partly cloudy - 12.7 1009.1 1.8
04/10:00pm SSW 9 15 - - - - 10 Partly cloudy - 13.3 1008.8 1.8
04/09:30pm SSW 10 13 - - - - 10 Partly cloudy - 13.4 1008.3 1.8
04/09:00pm SSW 9 15 - - - - 10 Cloudy - 13.5 1007.6 1.8
04/08:30pm SSW 11 16 - - - - 10 Partly cloudy - 13.7 1007.2 1.8
04/08:00pm SSW 13 17 - - - - 10 Partly cloudy - 14.1 1006.7 1.8
04/07:30pm SSW 14 20 - - - - 10 Partly cloudy - 14.6 1006.2 1.8
04/07:00pm SSW 15 21 - - - - 10 Partly cloudy - 15.4 1005.7 1.8
04/06:30pm SSW 14 21 - - - - 10 Partly cloudy - 15.9 1005.3 1.8
04/06:00pm SSW 16 23 - - - - 10 Cloudy - 16.4 1004.8 1.8
04/05:30pm SSW 17 25 - - - - 10 Partly cloudy - 15.8 1004.4 1.8
04/05:00pm SSW 17 28 - - - - 10 Partly cloudy - 15.7 1004.1 1.8
04/04:53pm SSW 17 28 - - - - 10 Partly cloudy - 15.5 1004.0 1.8
04/04:30pm SSW 16 23 - - - - 10 Cloudy - 14.7 1003.7 1.8
04/04:00pm SSW 16 22 - - - - 10 Cloudy - 14.6 1003.3 1.8
04/03:30pm SW 17 24 - - - - 10 Cloudy - 14.8 1003.0 1.8
04/03:00pm SSW 18 25 - - - - 10 Cloudy - 15.4 1002.6 1.8
04/02:30pm SSW 18 23 - - - - 10 Partly cloudy - 15.1 1002.3 1.8
04/02:00pm SSW 16 21 - - - - 10 Cloudy - 14.2 1002.1 1.8
04/01:30pm SSW 15 20 - - - - 10 Cloudy - 13.5 1001.7 1.8
04/01:00pm SSW 16 21 - - - - 10 Cloudy - 13.2 1001.4 1.6
04/12:30pm SSW 14 22 - - - - 10 Partly cloudy - 13.2 1000.9 1.6
04/12:20pm SSW 15 21 - - - - 10 Partly cloudy - 13.3 1000.8 1.6
04/12:18pm SSW 15 21 - - - - 10 Partly cloudy - 13.3 1000.7 1.6
04/12:04pm SSW 14 19 - - - - 5 Partly cloudy - 13.4 1000.7 1.6
04/12:00pm SSW 14 19 - - - - 9 Cloudy Showers 13.4 1000.6 1.6
04/11:58am SSW 14 20 - - - - 10 Partly cloudy - 13.4 1000.6 1.6
04/11:30am SSW 12 17 - - - - 4 Partly cloudy - 13.3 1000.3 1.6
04/11:00am SSW 14 20 - - - - 3 Partly cloudy - 13.2 1000.0 1.2
04/10:30am SSW 14 19 - - - - 4 Partly cloudy - 13.3 999.6 0.8
04/10:24am SSW 15 21 - - - - 3 Partly cloudy - 13.4 999.6 0.8
04/10:19am SSW 15 21 - - - - 5 Partly cloudy - 13.2 999.5 0.6
04/10:06am SSW 14 23 - - - - 10 Partly cloudy - 13.2 999.4 0.6
04/10:00am SSW 14 20 - - - - 9 Partly cloudy - 13.3 999.4 0.6
04/09:34am SSW 14 17 - - - - 5 Partly cloudy - 13.1 999.1 0.0
04/09:33am SSW 14 17 - - - - 6 Partly cloudy - 13.0 999.0 0.0
04/09:30am SSW 14 19 - - - - 8 Partly cloudy - 13.0 999.0 0.0
04/09:27am SSW 14 20 - - - - 10 Partly cloudy - 13.0 998.9 0.0
04/09:04am SSW 13 16 - - - - 10 Partly cloudy - 13.1 998.6 0.0
04/09:00am SSW 13 20 - - - - 10 Cloudy Rain 13.0 998.6 22.0
04/08:44am SSW 15 22 - - - - 5 Partly cloudy - 13.0 998.3 22.0
04/08:30am SSW 15 22 - - - - 6 Partly cloudy - 12.9 998.1 21.8
04/08:17am SSW 14 19 - - - - 7 Partly cloudy - 12.9 998.0 21.6
04/08:00am SSW 13 19 - - - - 4 Partly cloudy - 12.7 997.8 21.2
04/07:30am SSW 12 18 - - - - 4 Partly cloudy - 12.6 997.3 20.4
04/07:00am SSW 12 17 - - - - 5 Partly cloudy - 12.5 997.0 20.0
04/06:41am SSW 8 11 - - - - 7 Partly cloudy - 12.6 996.7 19.4
04/06:30am SSW 10 15 - - - - 5 Partly cloudy - 12.5 996.5 19.0
04/06:27am SSW 10 15 - - - - 5 Partly cloudy - 12.5 996.5 19.0
04/06:00am S 7 10 - - - - 10 Cloudy Rain 12.4 996.1 18.8
04/05:37am S 7 8 - - - - 10 Partly cloudy - 12.3 995.8 18.8
04/05:30am S 7 11 - - - - 9 Partly cloudy - 12.2 995.8 18.8

Other formats

Comma delimited format used in spreadsheet applications
http://www.bom.gov.au/fwo/IDT60701/IDT60701.94956.axf

JavaScript Object Notation format (JSON) in row-major order
http://www.bom.gov.au/fwo/IDT60701/IDT60701.94956.json

Data quality

Most of these data are generated automatically and are frequently updated. Quality checks on data are not normally performed. It is possible for incorrect values to appear. Refer to information at About Latest Weather Observations and please check the disclaimer before using these data.